createdAt,value
2019-02-14T00:00:11.776Z,31.40
2019-02-14T00:02:43.822Z,31.07
2019-02-14T00:05:16.519Z,34.80
2019-02-14T00:07:46.489Z,33.45
2019-02-14T00:10:16.806Z,32.33
2019-02-14T00:12:48.107Z,29.77
2019-02-14T00:15:18.483Z,32.58
2019-02-14T00:17:48.798Z,35.25
2019-02-14T00:20:19.922Z,30.52
2019-02-14T00:22:50.272Z,34.60
2019-02-14T00:25:20.724Z,30.92
2019-02-14T00:27:51.245Z,30.10
2019-02-14T00:30:21.657Z,32.93
2019-02-14T00:32:52.090Z,30.85
2019-02-14T00:35:25.065Z,32.03
2019-02-14T00:37:54.542Z,33.65
2019-02-14T00:40:25.305Z,33.42
2019-02-14T00:42:55.891Z,34.55
2019-02-14T00:45:26.295Z,30.30
2019-02-14T00:47:56.799Z,35.88
2019-02-14T00:50:27.092Z,34.55
2019-02-14T00:52:57.414Z,35.52
2019-02-14T00:55:27.763Z,35.23
2019-02-14T00:57:58.077Z,32.23
2019-02-14T01:00:28.408Z,28.85
2019-02-14T01:02:58.712Z,30.37
2019-02-14T01:05:33.662Z,34.38
2019-02-14T01:08:02.266Z,29.70
2019-02-14T01:10:32.687Z,32.42
2019-02-14T01:13:03.307Z,31.12
2019-02-14T01:15:35.301Z,29.77
2019-02-14T01:18:09.487Z,31.75
2019-02-14T01:20:39.810Z,28.95
2019-02-14T01:23:10.127Z,34.45
2019-02-14T01:25:40.449Z,31.12
2019-02-14T01:28:10.883Z,32.67
2019-02-14T01:30:41.275Z,31.65
2019-02-14T01:33:11.635Z,34.53
2019-02-14T01:35:42.245Z,32.10
2019-02-14T01:38:12.690Z,29.48
2019-02-14T01:40:43.086Z,32.28
2019-02-14T01:43:13.444Z,30.82
2019-02-14T01:45:43.756Z,31.45
2019-02-14T01:48:14.333Z,31.55
2019-02-14T01:50:44.700Z,29.25
2019-02-14T01:53:15.043Z,31.02
2019-02-14T01:55:45.416Z,31.97
2019-02-14T01:58:15.839Z,30.65
2019-02-14T02:00:46.216Z,30.00
2019-02-14T02:03:16.560Z,31.35
2019-02-14T02:05:50.852Z,34.43
2019-02-14T02:08:20.150Z,31.60
2019-02-14T02:10:51.143Z,30.37
2019-02-14T02:13:21.578Z,31.42
2019-02-14T02:15:51.919Z,31.45
2019-02-14T02:18:23.598Z,29.90
2019-02-14T02:20:54.551Z,31.50
2019-02-14T02:23:24.923Z,33.80
2019-02-14T02:25:55.278Z,32.00
2019-02-14T02:28:25.614Z,31.93
2019-02-14T02:30:57.900Z,29.92
2019-02-14T02:33:28.223Z,29.12
2019-02-14T02:36:00.486Z,28.90
2019-02-14T02:38:30.792Z,30.00
2019-02-14T02:41:01.186Z,31.62
2019-02-14T02:43:31.643Z,30.35
2019-02-14T02:46:03.608Z,30.70
2019-02-14T02:48:33.955Z,32.80
2019-02-14T02:51:04.319Z,34.27
2019-02-14T02:53:34.673Z,29.77
2019-02-14T02:56:05.181Z,32.17
2019-02-14T02:58:35.641Z,33.08
2019-02-14T03:01:06.075Z,31.97
2019-02-14T03:03:36.384Z,29.52
2019-02-14T03:06:10.683Z,28.83
2019-02-14T03:08:38.779Z,31.52
2019-02-14T03:11:09.211Z,30.43
2019-02-14T03:13:39.841Z,31.20
2019-02-14T03:16:10.174Z,29.42
2019-02-14T03:18:41.309Z,30.12
2019-02-14T03:21:11.630Z,30.52
2019-02-14T03:23:41.950Z,34.48
2019-02-14T03:26:12.287Z,32.00
2019-02-14T03:28:42.603Z,33.35
2019-02-14T03:31:12.936Z,35.92
2019-02-14T03:33:43.965Z,29.20
2019-02-14T03:36:19.011Z,28.62
2019-02-14T03:38:46.356Z,30.75
2019-02-14T03:41:16.761Z,33.40
2019-02-14T03:43:47.137Z,29.23
2019-02-14T03:46:17.485Z,31.80
2019-02-14T03:48:48.115Z,30.97
2019-02-14T03:51:18.498Z,32.10
2019-02-14T03:53:48.812Z,29.23
2019-02-14T03:56:21.163Z,32.53
2019-02-14T03:58:51.509Z,32.50
2019-02-14T04:01:21.843Z,32.42
2019-02-14T04:03:52.262Z,32.48
2019-02-14T04:06:27.504Z,32.40
2019-02-14T04:08:55.569Z,33.40
2019-02-14T04:11:25.907Z,32.15
2019-02-14T04:13:56.219Z,32.75
2019-02-14T04:16:26.620Z,30.05
2019-02-14T04:18:58.025Z,28.50
2019-02-14T04:21:31.419Z,32.60
2019-02-14T04:24:01.716Z,31.65
2019-02-14T04:26:32.038Z,34.67
2019-02-14T04:29:02.344Z,32.03
2019-02-14T04:31:32.686Z,32.10
2019-02-14T04:34:03.067Z,30.50
2019-02-14T04:36:36.031Z,31.57
2019-02-14T04:39:07.298Z,32.08
2019-02-14T04:41:37.667Z,33.55
2019-02-14T04:44:07.999Z,34.30
2019-02-14T04:46:38.336Z,34.80
2019-02-14T04:49:08.638Z,36.45
2019-02-14T04:51:42.171Z,32.83
2019-02-14T04:54:12.556Z,31.12
2019-02-14T04:56:42.903Z,35.35
2019-02-14T04:59:13.227Z,34.43
2019-02-14T05:01:43.620Z,31.60
2019-02-14T05:04:13.972Z,33.35
2019-02-14T05:06:44.604Z,32.63
2019-02-14T05:09:15.052Z,38.02
2019-02-14T05:11:45.455Z,37.55
2019-02-14T05:14:15.762Z,47.40
2019-02-14T05:16:46.038Z,42.23
2019-02-14T05:19:16.441Z,42.33
2019-02-14T05:21:47.470Z,36.90
2019-02-14T05:24:18.041Z,35.92
2019-02-14T05:26:48.499Z,36.93
2019-02-14T05:29:19.152Z,35.10
2019-02-14T05:31:49.787Z,42.38
2019-02-14T05:34:20.127Z,36.40
2019-02-14T05:36:53.595Z,38.33
2019-02-14T05:39:22.534Z,34.15
2019-02-14T05:41:52.820Z,33.88
2019-02-14T05:44:23.268Z,33.33
2019-02-14T05:46:53.683Z,34.75
2019-02-14T05:49:24.345Z,35.45
2019-02-14T05:51:54.623Z,33.75
2019-02-14T05:54:25.054Z,34.27
2019-02-14T05:56:55.524Z,34.95
2019-02-14T05:59:29.194Z,33.75
2019-02-14T06:01:59.501Z,34.92
2019-02-14T06:04:29.891Z,38.73
2019-02-14T06:07:01.307Z,38.98
2019-02-14T06:09:31.807Z,35.35
2019-02-14T06:12:02.267Z,35.65
2019-02-14T06:14:32.555Z,34.08
2019-02-14T06:17:03.155Z,36.08
2019-02-14T06:19:33.892Z,36.53
2019-02-14T06:22:10.311Z,35.10
2019-02-14T06:24:47.583Z,32.67
2019-02-14T06:27:17.943Z,33.15
2019-02-14T06:29:48.239Z,36.75
2019-02-14T06:32:18.557Z,34.53
2019-02-14T06:34:48.867Z,33.95
2019-02-14T06:37:19.201Z,37.03
2019-02-14T06:39:49.534Z,36.65
2019-02-14T06:42:31.861Z,34.67
2019-02-14T06:45:03.135Z,36.50
2019-02-14T06:47:33.531Z,38.05
2019-02-14T06:50:04.318Z,37.53
2019-02-14T06:52:34.665Z,33.08
2019-02-14T06:55:05.272Z,34.45
2019-02-14T06:57:36.650Z,33.58
2019-02-14T07:00:08.364Z,36.15
2019-02-14T07:02:40.070Z,35.85
2019-02-14T07:05:10.578Z,38.55
2019-02-14T07:07:41.118Z,36.03
2019-02-14T07:10:12.702Z,34.55
2019-02-14T07:12:43.065Z,34.73
2019-02-14T07:15:13.583Z,32.50
2019-02-14T07:17:44.414Z,34.95
2019-02-14T07:20:15.004Z,35.40
2019-02-14T07:22:45.653Z,34.43
2019-02-14T07:25:17.748Z,34.38
2019-02-14T07:27:49.506Z,38.33
2019-02-14T07:30:20.898Z,31.35
2019-02-14T07:32:51.308Z,34.50
2019-02-14T07:35:22.887Z,32.58
2019-02-14T07:37:53.205Z,33.53
2019-02-14T07:40:23.543Z,33.90
2019-02-14T07:42:53.906Z,29.12
2019-02-14T07:45:24.704Z,31.37
2019-02-14T07:47:55.008Z,30.82
2019-02-14T07:50:25.603Z,27.95
2019-02-14T07:52:56.018Z,26.20
2019-02-14T07:55:26.548Z,28.98
2019-02-14T07:57:56.965Z,24.92
2019-02-14T08:00:28.147Z,26.85
2019-02-14T08:02:58.652Z,24.92
2019-02-14T08:05:31.227Z,23.47
2019-02-14T08:08:01.947Z,25.95
2019-02-14T08:10:32.295Z,23.52
2019-02-14T08:13:02.693Z,23.57
2019-02-14T08:15:33.165Z,23.52
2019-02-14T08:18:09.755Z,21.60
2019-02-14T08:20:40.098Z,24.80
2019-02-14T08:23:10.459Z,21.95
2019-02-14T08:25:44.146Z,21.07
2019-02-14T08:28:14.549Z,23.05
2019-02-14T08:30:44.843Z,20.30
2019-02-14T08:33:15.183Z,21.45
2019-02-14T08:35:47.567Z,20.72
2019-02-14T08:38:18.209Z,22.42
2019-02-14T08:40:48.506Z,24.47
2019-02-14T08:43:18.841Z,19.57
2019-02-14T08:45:49.216Z,21.45
2019-02-14T08:48:20.431Z,19.50
2019-02-14T08:50:50.747Z,21.27
2019-02-14T08:53:21.315Z,20.60
2019-02-14T08:55:51.705Z,23.10
2019-02-14T08:58:22.001Z,21.12
2019-02-14T09:00:52.371Z,20.08
2019-02-14T09:03:22.911Z,21.02
2019-02-14T09:05:53.305Z,21.07
2019-02-14T09:08:23.842Z,21.70
2019-02-14T09:10:54.133Z,21.30
2019-02-14T09:13:24.587Z,23.30
2019-02-14T09:15:54.916Z,20.80
2019-02-14T09:18:27.355Z,21.90
2019-02-14T09:20:57.827Z,22.22
2019-02-14T09:23:28.241Z,23.80
2019-02-14T09:25:59.583Z,24.82
2019-02-14T09:28:29.921Z,22.42
2019-02-14T09:31:00.267Z,22.22
2019-02-14T09:33:31.283Z,22.22
2019-02-14T09:36:01.686Z,20.48
2019-02-14T09:38:32.011Z,21.75
2019-02-14T09:41:02.353Z,22.10
2019-02-14T09:43:32.737Z,21.23
2019-02-14T09:46:03.118Z,23.45
2019-02-14T09:48:33.509Z,21.82
2019-02-14T09:51:03.890Z,21.73
2019-02-14T09:53:34.304Z,24.18
2019-02-14T09:56:05.107Z,21.90
2019-02-14T09:58:35.443Z,23.25
2019-02-14T10:01:05.769Z,23.05
2019-02-14T10:03:36.445Z,23.52
2019-02-14T10:06:06.869Z,20.52
2019-02-14T10:08:37.936Z,21.20
2019-02-14T10:11:08.400Z,23.15
2019-02-14T10:13:38.698Z,22.85
2019-02-14T10:16:09.016Z,20.02
2019-02-14T10:18:39.356Z,21.10
2019-02-14T10:21:10.008Z,20.77
2019-02-14T10:23:40.419Z,23.32
2019-02-14T10:26:11.423Z,21.30
2019-02-14T10:28:42.495Z,18.40
2019-02-14T10:31:12.829Z,19.07
2019-02-14T10:33:43.235Z,18.90
2019-02-14T10:36:14.634Z,20.52
2019-02-14T10:38:46.879Z,20.20
2019-02-14T10:41:17.407Z,18.62
2019-02-14T10:43:49.020Z,21.52
2019-02-14T10:46:19.605Z,20.08
2019-02-14T10:48:49.991Z,19.48
2019-02-14T10:51:20.324Z,19.42
2019-02-14T10:53:50.764Z,17.65
2019-02-14T10:56:21.836Z,18.52
2019-02-14T10:58:52.287Z,17.40
2019-02-14T11:01:22.764Z,16.87
2019-02-14T11:03:53.152Z,20.43
2019-02-14T11:06:24.249Z,24.65
2019-02-14T11:08:55.121Z,18.90
2019-02-14T11:11:25.480Z,19.07
2019-02-14T11:13:55.879Z,18.37
2019-02-14T11:16:26.249Z,18.40
2019-02-14T11:18:59.238Z,20.75
2019-02-14T11:21:29.555Z,22.15
2019-02-14T11:24:00.215Z,28.62
2019-02-14T11:26:30.699Z,27.85
2019-02-14T11:29:01.011Z,20.90
2019-02-14T11:31:31.456Z,18.25
2019-02-14T11:34:01.799Z,20.25
2019-02-14T11:36:32.353Z,19.57
2019-02-14T11:39:04.554Z,16.95
2019-02-14T11:41:34.892Z,18.42
2019-02-14T11:44:06.349Z,17.85
2019-02-14T11:46:36.699Z,18.00
2019-02-14T11:49:07.072Z,18.75
2019-02-14T11:51:37.432Z,18.62
2019-02-14T11:54:07.738Z,16.93
2019-02-14T11:56:38.169Z,17.62
2019-02-14T11:59:08.612Z,17.25
2019-02-14T12:01:38.992Z,17.27
2019-02-14T12:04:09.363Z,19.32
2019-02-14T12:06:39.877Z,18.60
2019-02-14T12:09:13.371Z,18.50
2019-02-14T12:11:43.717Z,18.10
2019-02-14T12:14:14.118Z,17.98
2019-02-14T12:16:44.566Z,17.25
2019-02-14T12:19:15.220Z,18.07
2019-02-14T12:21:47.129Z,17.95
2019-02-14T12:24:17.480Z,17.92
2019-02-14T12:26:47.835Z,20.17
2019-02-14T12:29:18.236Z,20.05
2019-02-14T12:31:49.277Z,19.48
2019-02-14T12:34:19.656Z,18.70
2019-02-14T12:36:50.218Z,18.48
2019-02-14T12:39:20.572Z,17.30
2019-02-14T12:41:51.016Z,18.45
2019-02-14T12:44:22.177Z,17.48
2019-02-14T12:46:52.744Z,18.20
2019-02-14T12:49:23.136Z,17.67
2019-02-14T12:51:53.532Z,18.75
2019-02-14T12:54:24.067Z,17.05
2019-02-14T12:56:54.472Z,17.98
2019-02-14T12:59:25.803Z,19.07
2019-02-14T13:01:56.156Z,17.45
2019-02-14T13:04:26.543Z,20.40
2019-02-14T13:06:56.964Z,17.17
2019-02-14T13:09:28.045Z,16.17
2019-02-14T13:11:58.454Z,17.48
2019-02-14T13:14:28.886Z,16.32
2019-02-14T13:16:59.197Z,16.40
2019-02-14T13:19:29.611Z,18.52
2019-02-14T13:22:00.096Z,16.65
2019-02-14T13:24:30.786Z,18.12
2019-02-14T13:27:01.191Z,17.65
2019-02-14T13:29:31.741Z,18.23
2019-02-14T13:32:02.243Z,17.42
2019-02-14T13:34:32.627Z,16.77
2019-02-14T13:37:03.220Z,15.10
2019-02-14T13:39:33.651Z,16.12
2019-02-14T13:42:04.060Z,15.18
2019-02-14T13:44:34.750Z,14.43
2019-02-14T13:47:05.441Z,16.60
2019-02-14T13:49:35.874Z,14.58
2019-02-14T13:52:06.306Z,14.53
2019-02-14T13:54:36.655Z,17.20
2019-02-14T13:57:07.159Z,13.55
2019-02-14T13:59:37.656Z,12.47
2019-02-14T14:02:08.648Z,16.10
2019-02-14T14:04:39.879Z,13.45
2019-02-14T14:07:10.219Z,14.63
2019-02-14T14:09:42.324Z,11.90
2019-02-14T14:12:12.676Z,11.63
2019-02-14T14:14:43.255Z,14.23
2019-02-14T14:17:13.648Z,15.35
2019-02-14T14:19:44.006Z,12.35
2019-02-14T14:22:14.479Z,13.48
2019-02-14T14:24:44.824Z,13.48
2019-02-14T14:27:15.152Z,12.93
2019-02-14T14:29:45.481Z,15.98
2019-02-14T14:32:15.955Z,14.53
2019-02-14T14:34:46.285Z,18.90
2019-02-14T14:37:17.076Z,25.37
2019-02-14T14:39:48.113Z,30.95
2019-02-14T14:42:36.224Z,27.48
2019-02-14T14:45:08.566Z,25.20
2019-02-14T14:47:38.920Z,19.45
2019-02-14T14:50:09.386Z,16.65
2019-02-14T14:52:40.031Z,16.80
2019-02-14T14:55:10.388Z,15.28
2019-02-14T14:57:40.753Z,15.53
2019-02-14T15:00:11.485Z,14.83
2019-02-14T15:02:41.866Z,15.50
2019-02-14T15:05:12.306Z,16.12
2019-02-14T15:07:42.731Z,13.78
2019-02-14T15:10:14.012Z,15.85
2019-02-14T15:12:44.342Z,13.13
2019-02-14T15:15:14.798Z,16.07
2019-02-14T15:17:45.535Z,13.18
2019-02-14T15:20:17.281Z,15.23
2019-02-14T15:22:47.751Z,13.40
2019-02-14T15:25:18.021Z,14.45
2019-02-14T15:27:48.403Z,13.48
2019-02-14T15:30:20.118Z,14.15
2019-02-14T15:32:50.486Z,13.80
2019-02-14T15:35:20.808Z,13.80
2019-02-14T15:37:52.687Z,14.28
2019-02-14T15:40:23.197Z,16.37
2019-02-14T15:42:53.756Z,15.77
2019-02-14T15:45:24.200Z,14.65
2019-02-14T15:47:54.682Z,16.23
2019-02-14T15:50:25.003Z,15.32
2019-02-14T15:52:57.008Z,15.08
2019-02-14T15:55:27.527Z,14.98
2019-02-14T15:57:57.822Z,18.17
2019-02-14T16:00:30.589Z,17.35
2019-02-14T16:03:00.545Z,16.40
2019-02-14T16:05:31.675Z,18.30
2019-02-14T16:08:02.902Z,17.73
2019-02-14T16:10:34.158Z,16.25
2019-02-14T16:13:05.812Z,17.02
2019-02-14T16:15:36.645Z,18.05
2019-02-14T16:18:08.523Z,17.25
2019-02-14T16:20:40.427Z,15.48
2019-02-14T16:23:11.780Z,19.42
2019-02-14T16:25:42.064Z,17.40
2019-02-14T16:28:13.727Z,20.05
2019-02-14T16:30:44.227Z,14.90
2019-02-14T16:33:14.520Z,20.15
2019-02-14T16:35:44.943Z,16.25
2019-02-14T16:38:15.450Z,15.88
2019-02-14T16:40:46.707Z,17.15
2019-02-14T16:43:17.056Z,16.15
2019-02-14T16:45:47.450Z,17.30
2019-02-14T16:48:18.512Z,16.82
2019-02-14T16:50:48.855Z,17.52
2019-02-14T16:53:19.186Z,17.85
2019-02-14T16:55:49.526Z,20.40
2019-02-14T16:58:19.805Z,20.45
2019-02-14T17:00:50.177Z,22.25
2019-02-14T17:03:20.843Z,17.77
2019-02-14T17:05:51.264Z,19.00
2019-02-14T17:08:21.696Z,16.80
2019-02-14T17:10:52.180Z,16.10
2019-02-14T17:13:22.535Z,15.75
2019-02-14T17:15:52.930Z,21.27
2019-02-14T17:18:30.527Z,18.07
2019-02-14T17:21:01.015Z,18.35
2019-02-14T17:23:31.438Z,17.50
2019-02-14T17:26:01.753Z,17.48
2019-02-14T17:28:32.258Z,18.95
2019-02-14T17:31:02.560Z,17.82
2019-02-14T17:33:33.637Z,16.87
2019-02-14T17:36:04.112Z,16.57
2019-02-14T17:38:34.547Z,16.95
2019-02-14T17:41:04.880Z,17.23
2019-02-14T17:43:35.212Z,18.35
2019-02-14T17:46:05.823Z,17.80
2019-02-14T17:48:36.181Z,16.23
2019-02-14T17:51:06.540Z,16.60
2019-02-14T17:53:37.105Z,17.92
2019-02-14T17:56:07.474Z,20.90
2019-02-14T17:58:37.785Z,20.72
2019-02-14T18:01:08.300Z,16.37
2019-02-14T18:03:38.651Z,19.23
2019-02-14T18:06:12.772Z,16.12
2019-02-14T18:08:43.352Z,20.02
2019-02-14T18:11:17.299Z,17.15
2019-02-14T18:13:47.631Z,19.20
2019-02-14T18:16:19.062Z,17.48
2019-02-14T18:18:55.803Z,14.98
2019-02-14T18:21:26.248Z,20.48
2019-02-14T18:23:56.583Z,19.70
2019-02-14T18:26:26.986Z,18.92
2019-02-14T18:28:57.342Z,16.73
2019-02-14T18:31:27.848Z,17.30
2019-02-14T18:33:58.186Z,17.82
2019-02-14T18:36:30.341Z,17.77
2019-02-14T18:39:00.747Z,20.05
2019-02-14T18:41:32.729Z,18.32
2019-02-14T18:44:03.132Z,17.15
2019-02-14T18:46:33.611Z,18.12
2019-02-14T18:49:04.117Z,17.55
2019-02-14T18:51:34.674Z,15.30
2019-02-14T18:54:05.079Z,16.50
2019-02-14T18:56:35.372Z,17.07
2019-02-14T18:59:05.731Z,15.60
2019-02-14T19:01:36.032Z,16.80
2019-02-14T19:04:06.463Z,20.60
2019-02-14T19:06:36.786Z,17.95
2019-02-14T19:09:08.953Z,20.75
2019-02-14T19:11:39.347Z,20.65
2019-02-14T19:14:09.735Z,19.37
2019-02-14T19:16:40.104Z,18.60
2019-02-14T19:19:11.485Z,18.50
2019-02-14T19:21:41.838Z,24.02
2019-02-14T19:24:12.158Z,17.95
2019-02-14T19:26:42.519Z,20.23
2019-02-14T19:29:12.891Z,21.07
2019-02-14T19:31:43.289Z,21.27
2019-02-14T19:34:13.654Z,21.68
2019-02-14T19:36:44.002Z,21.97
2019-02-14T19:39:14.383Z,20.55
2019-02-14T19:41:44.797Z,19.70
2019-02-14T19:44:15.125Z,20.50
2019-02-14T19:46:45.489Z,21.10
2019-02-14T19:49:16.628Z,19.70
2019-02-14T19:51:47.031Z,18.70
2019-02-14T19:54:17.357Z,19.48
2019-02-14T19:56:47.808Z,21.73
2019-02-14T19:59:18.094Z,21.95
2019-02-14T20:01:48.449Z,19.57
2019-02-14T20:04:18.854Z,18.77
2019-02-14T20:06:49.235Z,22.75
2019-02-14T20:09:19.675Z,18.42
2019-02-14T20:11:50.136Z,18.75
2019-02-14T20:14:21.219Z,21.57
2019-02-14T20:16:51.836Z,18.95
2019-02-14T20:19:22.484Z,16.55
2019-02-14T20:21:52.964Z,15.90
2019-02-14T20:24:23.301Z,17.50
2019-02-14T20:26:54.015Z,16.55
2019-02-14T20:29:24.380Z,18.32
2019-02-14T20:31:54.940Z,33.55
2019-02-14T20:34:25.398Z,28.57
2019-02-14T20:36:55.787Z,31.10
2019-02-14T20:39:27.307Z,32.30
2019-02-14T20:41:57.619Z,34.38
2019-02-14T20:44:27.987Z,22.75
2019-02-14T20:46:58.410Z,17.50
2019-02-14T20:49:28.870Z,17.50
2019-02-14T20:51:59.207Z,17.60
2019-02-14T20:54:29.633Z,16.52
2019-02-14T20:57:00.193Z,13.20
2019-02-14T20:59:32.662Z,13.22
2019-02-14T21:02:03.143Z,13.68
2019-02-14T21:04:33.536Z,13.28
2019-02-14T21:07:03.933Z,12.43
2019-02-14T21:09:34.595Z,12.75
2019-02-14T21:12:05.132Z,15.30
2019-02-14T21:14:35.488Z,13.08
2019-02-14T21:17:05.826Z,12.15
2019-02-14T21:19:36.623Z,12.05
2019-02-14T21:22:17.751Z,12.37
2019-02-14T21:24:41.138Z,12.15
2019-02-14T21:27:11.633Z,11.08
2019-02-14T21:29:42.084Z,11.85
2019-02-14T21:32:12.380Z,12.88
2019-02-14T21:34:42.814Z,11.78
2019-02-14T21:37:14.034Z,12.35
2019-02-14T21:39:45.285Z,12.45
2019-02-14T21:42:20.971Z,11.78
2019-02-14T21:44:49.713Z,13.18
2019-02-14T21:47:20.101Z,11.78
2019-02-14T21:49:50.530Z,12.73
2019-02-14T21:52:20.958Z,13.25
2019-02-14T21:54:51.847Z,12.82
2019-02-14T21:57:22.222Z,11.45
2019-02-14T21:59:52.570Z,12.40
2019-02-14T22:02:22.987Z,11.97
2019-02-14T22:04:53.385Z,13.20
2019-02-14T22:07:23.734Z,11.43
2019-02-14T22:09:54.392Z,13.70
2019-02-14T22:12:38.275Z,12.50
2019-02-14T22:14:57.026Z,12.90
2019-02-14T22:17:27.362Z,12.68
2019-02-14T22:19:58.656Z,12.23
2019-02-14T22:22:29.055Z,12.43
2019-02-14T22:24:59.411Z,12.68
2019-02-14T22:27:29.867Z,13.03
2019-02-14T22:30:00.595Z,12.80
2019-02-14T22:32:30.956Z,12.43
2019-02-14T22:35:01.412Z,12.30
2019-02-14T22:37:31.756Z,12.30
2019-02-14T22:40:02.200Z,12.40
2019-02-14T22:42:32.727Z,12.68
2019-02-14T22:45:03.114Z,15.75
2019-02-14T22:47:33.554Z,12.98
2019-02-14T22:50:04.100Z,14.70
2019-02-14T22:52:34.547Z,16.17
2019-02-14T22:55:05.220Z,19.55
2019-02-14T22:57:35.621Z,24.12
2019-02-14T23:00:13.255Z,17.57
2019-02-14T23:02:44.243Z,17.82
2019-02-14T23:05:16.485Z,17.30
2019-02-14T23:07:47.028Z,15.28
2019-02-14T23:10:17.351Z,14.90
2019-02-14T23:12:55.447Z,13.48
2019-02-14T23:15:20.083Z,13.30
2019-02-14T23:17:50.492Z,12.70
2019-02-14T23:20:27.478Z,14.25
2019-02-14T23:22:58.518Z,14.65
2019-02-14T23:25:29.446Z,15.32
2019-02-14T23:28:01.425Z,22.75
2019-02-14T23:30:31.759Z,16.35
2019-02-14T23:33:02.122Z,14.03
2019-02-14T23:35:32.539Z,21.00
2019-02-14T23:38:03.193Z,17.55
2019-02-14T23:40:33.530Z,15.75
2019-02-14T23:43:07.529Z,26.50
2019-02-14T23:45:59.445Z,28.42
2019-02-14T23:48:34.855Z,17.77
2019-02-14T23:51:05.286Z,20.27
2019-02-14T23:53:35.737Z,14.85
2019-02-14T23:56:06.169Z,17.62
2019-02-14T23:58:36.532Z,14.00
